Decoded Metar for LFPV (VILLACOUBLAY in FRANCE) (IATA:N/A) | Meteo·Mobile Aviation Weather
aviador You're here:

LFPV Decoded Metar

VILLACOUBLAY in FRANCE
Report Time2019-10-21 07:30:00
UTC Time2019-10-21 07:52:40
Flight Rules ifr IFR
Wind230° at 08 kt
W.Decomp.*RWY 27: 6.2 kt HW 5 kt LCW
Visibility9999 m
Phenomena:N/A
Clouds:Overcast 005 Hf
Expected CloudBase > 400 ft AGL from Temp-Dew spread
Ceiling500 ft
Temp10°C (ISA -4)
Dew Point09°C (94% RH)
AAT6.9°C
QNH1015 hPa
Density Alt220 ft
Elevation587 ft
Report Wrong Elevation
Raw Report
LFPV 210730Z AUTO 23008KT 9999 OVC005 10/09 Q1015 BECMG BKN012=

Extra information for LFPV:More info

Metar Taf Metar & Taf Last 4 Metars F.Rules Stats Wind Profile Meteogram Temp Stats Airport Information Weather charts Add Link Nearby VenuesMetar ALERT Operation Metar Decoded Social comments